Time;durP1;ratioP1;P1;durP2;ratioP2;P2;SDS_P1;SDS_P2;PMS_P1;PMS_P2;Temp;Humidity;BMP_temperature;BMP_pressure;BME280_temperature;BME280_humidity;BME280_pressure;Samples;Min_cycle;Max_cycle;Signal;HPM_P1;HPM_P2
2022/09/15 00:00:19;;;;;;;0.90;0.90;;;24.70;56.40;;;;;;5066918;28;45423;-87
2022/09/15 00:02:46;;;;;;;1.13;1.10;;;24.70;56.40;;;;;;5069758;28;45321;-86
2022/09/15 00:05:13;;;;;;;1.20;1.10;;;24.70;56.50;;;;;;5069752;28;45361;-86
2022/09/15 00:07:39;;;;;;;1.65;1.10;;;24.70;56.50;;;;;;5070358;28;45236;-87
2022/09/15 00:10:09;;;;;;;1.40;1.27;;;24.70;57.10;;;;;;5069651;28;45767;-87
2022/09/15 00:12:36;;;;;;;1.00;0.98;;;24.70;56.40;;;;;;5061803;28;45244;-86
2022/09/15 00:15:03;;;;;;;1.23;1.02;;;24.70;56.40;;;;;;5067075;28;45281;-86
2022/09/15 00:17:30;;;;;;;1.02;1.00;;;24.70;56.40;;;;;;5069691;28;45189;-87
2022/09/15 00:19:57;;;;;;;1.35;1.25;;;24.70;56.40;;;;;;5069357;28;45549;-87
2022/09/15 00:22:25;;;;;;;1.10;1.00;;;24.70;56.30;;;;;;5069490;28;45177;-87
2022/09/15 00:24:51;;;;;;;1.45;1.20;;;24.70;56.40;;;;;;5069626;28;45327;-86
2022/09/15 00:27:20;;;;;;;0.80;0.80;;;24.70;56.30;;;;;;5069957;28;45378;-87
2022/09/15 00:29:46;;;;;;;1.45;1.08;;;24.70;56.30;;;;;;5069609;28;45722;-87
2022/09/15 00:32:13;;;;;;;1.38;1.10;;;24.70;56.40;;;;;;5069813;28;45198;-87
2022/09/15 00:34:40;;;;;;;0.90;0.90;;;24.70;56.40;;;;;;5069343;28;45328;-86
2022/09/15 00:37:07;;;;;;;1.30;1.20;;;24.70;56.30;;;;;;5067511;28;45308;-86
2022/09/15 00:39:34;;;;;;;1.00;1.00;;;24.60;56.30;;;;;;5069835;28;45456;-86
2022/09/15 00:42:01;;;;;;;1.13;0.90;;;24.60;56.30;;;;;;5069886;28;45244;-86
2022/09/15 00:44:54;;;;;;;1.10;1.10;;;24.60;56.30;;;;;;5069631;28;45218;-87
2022/09/15 00:47:23;;;;;;;0.90;0.90;;;24.60;56.30;;;;;;5066957;28;45366;-86
2022/09/15 00:49:52;;;;;;;0.90;0.90;;;24.60;56.30;;;;;;5067012;28;46506;-86
2022/09/15 00:52:21;;;;;;;1.00;1.00;;;24.60;56.30;;;;;;5069462;28;45420;-86
2022/09/15 00:54:49;;;;;;;1.13;0.95;;;24.60;56.20;;;;;;5066862;28;45193;-87
2022/09/15 00:57:17;;;;;;;1.27;0.82;;;24.60;56.30;;;;;;5089526;28;45324;-86
2022/09/15 00:59:44;;;;;;;1.35;0.90;;;24.60;56.30;;;;;;5089584;28;48244;-87
2022/09/15 01:02:15;;;;;;;0.82;0.82;;;24.60;56.30;;;;;;5089031;27;45232;-87
2022/09/15 01:04:42;;;;;;;0.75;0.75;;;24.60;56.20;;;;;;5089515;28;45307;-86
2022/09/15 01:07:10;;;;;;;1.13;0.82;;;24.60;56.30;;;;;;5089860;28;45459;-86
2022/09/15 01:09:43;;;;;;;1.60;0.80;;;24.60;56.30;;;;;;5089426;28;46932;-87
2022/09/15 01:12:10;;;;;;;1.15;0.80;;;24.50;56.20;;;;;;5089585;28;46014;-87
2022/09/15 01:14:37;;;;;;;1.13;1.10;;;24.50;56.30;;;;;;5087078;28;45189;-86
2022/09/15 01:17:07;;;;;;;2.35;0.90;;;24.50;56.20;;;;;;5090012;28;45497;-86
2022/09/15 01:20:08;;;;;;;1.60;0.82;;;24.50;56.30;;;;;;5089544;28;46382;-86
2022/09/15 01:22:37;;;;;;;1.17;0.80;;;24.50;56.30;;;;;;5087482;28;45123;-87
2022/09/15 01:25:08;;;;;;;0.80;0.80;;;24.50;56.20;;;;;;5089213;28;45253;-86
2022/09/15 01:28:14;;;;;;;2.05;1.20;;;24.50;56.30;;;;;;5089658;28;45485;-86
2022/09/15 01:30:42;;;;;;;3.50;1.08;;;24.50;56.30;;;;;;5089144;28;46207;-86
2022/09/15 01:33:13;;;;;;;0.90;0.90;;;24.50;56.20;;;;;;5086845;28;45323;-88
2022/09/15 01:35:56;;;;;;;1.00;0.90;;;24.50;56.30;;;;;;5089125;28;45185;-86
2022/09/15 01:38:32;;;;;;;0.70;0.70;;;24.40;56.20;;;;;;5090161;28;45225;-86
2022/09/15 01:41:02;;;;;;;0.82;0.82;;;24.40;56.20;;;;;;5086669;28;45418;-86
2022/09/15 01:43:29;;;;;;;1.10;0.75;;;24.40;56.20;;;;;;5089541;28;45295;-88
2022/09/15 01:45:57;;;;;;;0.70;0.70;;;24.40;56.20;;;;;;5089018;28;45150;-86
2022/09/15 01:48:25;;;;;;;0.70;0.70;;;24.40;56.20;;;;;;5089315;28;45507;-86
2022/09/15 01:50:53;;;;;;;1.20;1.10;;;24.40;56.80;;;;;;5088721;28;45444;-87
2022/09/15 01:53:20;;;;;;;1.00;0.80;;;24.40;56.30;;;;;;5088809;28;45348;-87
2022/09/15 01:55:48;;;;;;;0.75;0.75;;;24.40;56.30;;;;;;5082048;28;45170;-86
2022/09/15 01:58:15;;;;;;;0.82;0.82;;;24.30;56.20;;;;;;5069565;28;45333;-86
2022/09/15 02:00:44;;;;;;;0.63;0.63;;;24.40;56.30;;;;;;5066256;28;45419;-86
2022/09/15 02:03:17;;;;;;;0.90;0.85;;;24.30;56.20;;;;;;5068527;28;45286;-87
2022/09/15 02:05:45;;;;;;;0.80;0.77;;;24.30;56.20;;;;;;5068589;28;45154;-87
2022/09/15 02:08:23;;;;;;;1.10;1.00;;;24.30;56.20;;;;;;5068847;28;45225;-88
2022/09/15 02:10:54;;;;;;;0.80;0.80;;;24.30;56.20;;;;;;5068957;28;45761;-87
2022/09/15 02:13:25;;;;;;;0.90;0.70;;;24.30;56.20;;;;;;5068957;28;45187;-85
2022/09/15 02:15:54;;;;;;;0.70;0.70;;;24.30;56.20;;;;;;5065436;28;45313;-86
2022/09/15 02:18:24;;;;;;;1.02;0.80;;;24.30;56.20;;;;;;5068931;28;45300;-86
2022/09/15 02:20:56;;;;;;;0.88;0.80;;;24.30;56.10;;;;;;5068744;28;46606;-86
2022/09/15 02:23:25;;;;;;;0.70;0.70;;;24.30;56.10;;;;;;5068657;28;45173;-87
2022/09/15 02:25:53;;;;;;;0.80;0.80;;;24.30;56.10;;;;;;5068961;28;45450;-86
2022/09/15 02:28:22;;;;;;;0.80;0.80;;;24.30;56.20;;;;;;5068377;28;45539;-86
2022/09/15 02:30:49;;;;;;;0.80;0.80;;;24.20;56.70;;;;;;5067416;28;45683;-86
2022/09/15 02:33:18;;;;;;;1.63;0.80;;;24.20;56.20;;;;;;5068237;28;45193;-86
2022/09/15 02:35:46;;;;;;;0.63;0.63;;;24.20;56.10;;;;;;5078083;28;45320;-87
2022/09/15 02:38:13;;;;;;;0.80;0.80;;;24.20;56.20;;;;;;5089191;28;45392;-86
2022/09/15 02:40:41;;;;;;;0.77;0.77;;;24.20;56.20;;;;;;5088571;28;47295;-86
2022/09/15 02:43:10;;;;;;;0.75;0.70;;;24.20;56.10;;;;;;5088573;28;45329;-88
2022/09/15 02:45:37;;;;;;;0.77;0.77;;;24.20;56.20;;;;;;5088685;28;45243;-87
2022/09/15 02:48:04;;;;;;;0.63;0.63;;;24.20;56.10;;;;;;5086339;28;45173;-86
2022/09/15 02:50:31;;;;;;;0.70;0.70;;;24.20;56.20;;;;;;5087957;28;45515;-87
2022/09/15 02:52:59;;;;;;;0.70;0.70;;;24.20;56.20;;;;;;5087974;28;45254;-88
2022/09/15 02:55:27;;;;;;;0.70;0.70;;;24.20;56.10;;;;;;5084086;28;45337;-87
2022/09/15 02:57:54;;;;;;;0.85;0.70;;;24.20;56.10;;;;;;5068224;28;45095;-87
2022/09/15 03:00:21;;;;;;;0.70;0.70;;;24.20;56.10;;;;;;5068150;28;47281;-87
2022/09/15 03:02:50;;;;;;;0.65;0.60;;;24.20;56.10;;;;;;5067902;28;45303;-87
2022/09/15 03:05:18;;;;;;;1.00;0.95;;;24.20;56.10;;;;;;5065218;28;45298;-87
2022/09/15 03:07:45;;;;;;;0.60;0.60;;;24.20;56.10;;;;;;5067899;28;45112;-86
2022/09/15 03:10:13;;;;;;;0.60;0.60;;;24.10;56.10;;;;;;5067380;28;47624;-86
2022/09/15 03:12:41;;;;;;;0.60;0.60;;;24.10;56.10;;;;;;5064862;28;45319;-86
2022/09/15 03:15:09;;;;;;;0.60;0.60;;;24.10;56.10;;;;;;5067648;28;45189;-86
2022/09/15 03:17:36;;;;;;;0.80;0.80;;;24.10;56.00;;;;;;5068086;28;45158;-85
2022/09/15 03:20:04;;;;;;;0.85;0.80;;;24.10;56.00;;;;;;5067859;28;46881;-86
2022/09/15 03:22:31;;;;;;;1.25;0.77;;;24.10;56.00;;;;;;5066388;28;46294;-86
2022/09/15 03:24:57;;;;;;;0.70;0.70;;;24.10;56.00;;;;;;5067153;28;45254;-86
2022/09/15 03:27:26;;;;;;;0.60;0.60;;;24.10;56.00;;;;;;5068323;28;45170;-86
2022/09/15 03:29:52;;;;;;;1.02;0.80;;;24.10;56.00;;;;;;5068284;28;45386;-86
2022/09/15 03:32:19;;;;;;;0.50;0.50;;;24.10;56.00;;;;;;5070662;28;45324;-85
2022/09/15 03:34:46;;;;;;;0.75;0.75;;;24.10;56.00;;;;;;5070780;28;45384;-85
2022/09/15 03:37:13;;;;;;;1.98;0.90;;;24.10;56.00;;;;;;5068656;28;45177;-86
2022/09/15 03:39:40;;;;;;;0.70;0.70;;;24.10;56.00;;;;;;5068556;28;45167;-85
2022/09/15 03:42:07;;;;;;;1.05;0.80;;;24.10;56.00;;;;;;5071086;28;45213;-86
2022/09/15 03:44:35;;;;;;;0.60;0.60;;;24.10;56.00;;;;;;5070606;28;45346;-86
2022/09/15 03:47:02;;;;;;;0.70;0.70;;;24.10;56.00;;;;;;5067718;28;45407;-85
2022/09/15 03:49:29;;;;;;;0.60;0.60;;;24.10;56.00;;;;;;5067719;28;45421;-85
2022/09/15 03:51:56;;;;;;;0.70;0.70;;;24.10;56.00;;;;;;5070569;28;45208;-86
2022/09/15 03:54:22;;;;;;;0.65;0.65;;;24.00;56.00;;;;;;5074351;28;45142;-86
2022/09/15 03:56:50;;;;;;;0.52;0.52;;;24.00;56.10;;;;;;5086535;28;45280;-86
2022/09/15 03:59:17;;;;;;;0.60;0.60;;;24.00;56.10;;;;;;5090608;28;45784;-86
2022/09/15 04:01:46;;;;;;;0.70;0.70;;;24.00;56.10;;;;;;5090829;28;45232;-86
2022/09/15 04:04:12;;;;;;;0.60;0.60;;;23.90;56.20;;;;;;5090913;28;45173;-86
2022/09/15 04:06:40;;;;;;;0.63;0.63;;;23.90;56.20;;;;;;5090515;28;45352;-85
2022/09/15 04:09:07;;;;;;;0.52;0.52;;;23.90;56.20;;;;;;5090569;28;46939;-85
2022/09/15 04:11:34;;;;;;;1.10;1.10;;;23.90;56.20;;;;;;5090398;28;45206;-86
2022/09/15 04:14:00;;;;;;;0.70;0.70;;;23.90;56.20;;;;;;5090310;28;45229;-86
2022/09/15 04:16:27;;;;;;;0.80;0.70;;;23.90;56.20;;;;;;5090871;28;45126;-86
2022/09/15 04:18:56;;;;;;;0.95;0.75;;;23.90;56.20;;;;;;5090398;28;47647;-86
2022/09/15 04:21:24;;;;;;;0.50;0.50;;;23.90;56.80;;;;;;5090806;28;45391;-85
2022/09/15 04:23:50;;;;;;;2.05;0.80;;;23.90;56.20;;;;;;5091231;28;45243;-87
2022/09/15 04:26:18;;;;;;;0.70;0.63;;;23.90;56.20;;;;;;5091345;28;45542;-86
2022/09/15 04:28:45;;;;;;;0.68;0.68;;;23.90;56.20;;;;;;5090750;28;46654;-87
2022/09/15 04:31:13;;;;;;;1.13;0.60;;;23.90;56.20;;;;;;5091347;28;45334;-87
2022/09/15 04:33:40;;;;;;;0.60;0.60;;;23.90;56.20;;;;;;5088066;28;45180;-86
2022/09/15 04:36:11;;;;;;;0.50;0.50;;;23.90;56.20;;;;;;5087635;28;45380;-86
2022/09/15 04:38:38;;;;;;;0.68;0.68;;;23.80;56.10;;;;;;5089050;27;45507;-86
2022/09/15 04:41:05;;;;;;;1.05;0.70;;;23.80;56.10;;;;;;5091427;28;45209;-86
2022/09/15 04:43:32;;;;;;;0.60;0.60;;;23.80;56.10;;;;;;5088351;28;45130;-87
2022/09/15 04:45:59;;;;;;;0.80;0.60;;;23.80;56.70;;;;;;5090677;28;44775;-86
2022/09/15 04:48:26;;;;;;;0.80;0.80;;;23.80;56.10;;;;;;5090234;28;45497;-86
2022/09/15 04:50:53;;;;;;;0.50;0.50;;;23.80;56.10;;;;;;5089225;28;45325;-87
2022/09/15 04:53:21;;;;;;;0.85;0.60;;;23.80;56.10;;;;;;5087640;28;45162;-86
2022/09/15 04:55:48;;;;;;;0.60;0.60;;;23.80;56.10;;;;;;5080119;28;45165;-86
2022/09/15 04:58:14;;;;;;;1.75;0.70;;;23.90;56.10;;;;;;5069535;28;46595;-86
2022/09/15 05:00:42;;;;;;;0.77;0.63;;;23.90;56.10;;;;;;5066133;28;45425;-86
2022/09/15 05:03:09;;;;;;;0.60;0.60;;;23.80;56.00;;;;;;5069258;28;45275;-86
2022/09/15 05:05:36;;;;;;;0.77;0.77;;;23.90;56.10;;;;;;5069723;28;45184;-87
2022/09/15 05:08:03;;;;;;;1.65;0.95;;;23.90;56.00;;;;;;5069347;28;47306;-86
2022/09/15 05:10:31;;;;;;;0.60;0.60;;;23.80;56.00;;;;;;5116898;22;45228;-72
2022/09/15 05:12:58;;;;;;;0.80;0.80;;;23.90;56.00;;;;;;5049104;28;45309;-72
2022/09/15 05:15:25;;;;;;;0.70;0.70;;;23.80;56.00;;;;;;5046787;28;45301;-72
2022/09/15 05:17:52;;;;;;;0.60;0.60;;;23.80;56.00;;;;;;5048139;28;47286;-72
2022/09/15 05:20:19;;;;;;;0.52;0.50;;;23.80;56.00;;;;;;5048102;28;45187;-72
2022/09/15 05:22:46;;;;;;;0.88;0.50;;;23.80;56.00;;;;;;5048271;28;45205;-72
2022/09/15 05:25:13;;;;;;;0.98;0.82;;;23.80;56.00;;;;;;5048486;28;45368;-72
2022/09/15 05:27:41;;;;;;;0.73;0.65;;;23.80;56.00;;;;;;5047785;28;46896;-72
2022/09/15 05:30:09;;;;;;;0.70;0.60;;;23.80;56.00;;;;;;5047933;28;45227;-72
2022/09/15 05:32:36;;;;;;;0.70;0.70;;;23.80;56.00;;;;;;5047953;28;45211;-72
2022/09/15 05:35:04;;;;;;;0.80;0.70;;;23.80;56.00;;;;;;5051784;28;45190;-72
2022/09/15 05:37:30;;;;;;;0.82;0.70;;;23.80;56.00;;;;;;5067096;28;45424;-72
2022/09/15 05:39:58;;;;;;;0.85;0.80;;;23.80;56.00;;;;;;5067765;28;45261;-72
2022/09/15 05:42:25;;;;;;;0.65;0.65;;;23.80;56.00;;;;;;5068136;28;45233;-72
2022/09/15 05:44:53;;;;;;;0.82;0.82;;;23.80;55.90;;;;;;5067943;28;45550;-72
2022/09/15 05:47:20;;;;;;;0.75;0.75;;;23.80;56.00;;;;;;5067544;28;45462;-72
2022/09/15 05:49:47;;;;;;;0.73;0.70;;;23.80;56.20;;;;;;5067673;28;45407;-72
2022/09/15 05:52:13;;;;;;;0.85;0.80;;;23.80;56.30;;;;;;5067984;28;45305;-72
2022/09/15 05:54:40;;;;;;;1.38;1.00;;;23.70;56.30;;;;;;5067930;28;45329;-72
2022/09/15 05:57:07;;;;;;;0.98;0.90;;;23.70;56.50;;;;;;5049145;28;45292;-71
2022/09/15 05:59:34;;;;;;;1.42;1.05;;;23.70;56.50;;;;;;5047440;28;45235;-72
2022/09/15 06:02:03;;;;;;;3.08;1.40;;;23.70;56.60;;;;;;5047789;28;45227;-72
2022/09/15 06:04:30;;;;;;;2.78;1.70;;;23.70;56.80;;;;;;5047705;28;45442;-72
2022/09/15 06:06:56;;;;;;;2.05;1.08;;;23.70;56.80;;;;;;5047247;28;46390;-72
2022/09/15 06:09:23;;;;;;;1.10;1.10;;;23.70;56.90;;;;;;5046938;28;45183;-71
2022/09/15 06:11:51;;;;;;;1.40;1.30;;;23.70;57.00;;;;;;5047285;28;45190;-71
2022/09/15 06:14:17;;;;;;;1.80;1.10;;;23.70;57.10;;;;;;5047448;28;44807;-71
2022/09/15 06:16:44;;;;;;;2.10;1.00;;;23.70;57.10;;;;;;5046898;28;46423;-72
2022/09/15 06:19:12;;;;;;;1.20;1.10;;;23.70;57.10;;;;;;5047099;28;45279;-71
2022/09/15 06:21:39;;;;;;;2.58;1.00;;;23.70;57.20;;;;;;5046471;28;45253;-71
2022/09/15 06:24:06;;;;;;;1.30;1.10;;;23.70;57.30;;;;;;5047186;28;45329;-71
2022/09/15 06:26:33;;;;;;;0.95;0.82;;;23.60;57.20;;;;;;5046737;28;46568;-71
2022/09/15 06:29:01;;;;;;;1.45;1.10;;;23.70;57.30;;;;;;5046932;28;45297;-71
2022/09/15 06:31:30;;;;;;;2.67;1.10;;;23.70;57.40;;;;;;5046975;28;45268;-71
2022/09/15 06:33:57;;;;;;;1.40;1.00;;;23.60;57.40;;;;;;5047307;28;45377;-71
2022/09/15 06:36:26;;;;;;;1.25;1.15;;;23.60;57.30;;;;;;5061677;28;45365;-71
2022/09/15 06:38:53;;;;;;;5.18;1.40;;;23.60;57.40;;;;;;5066708;28;45214;-71
2022/09/15 06:41:20;;;;;;;2.25;1.65;;;23.70;57.50;;;;;;5066986;28;45305;-71
2022/09/15 06:43:48;;;;;;;2.42;1.50;;;23.70;57.60;;;;;;5067169;28;45360;-71
2022/09/15 06:46:15;;;;;;;1.73;1.42;;;23.70;57.60;;;;;;5065115;28;46369;-71
2022/09/15 06:48:42;;;;;;;2.10;1.70;;;23.70;57.70;;;;;;5066781;28;45179;-71
2022/09/15 06:51:11;;;;;;;2.95;1.50;;;23.70;57.70;;;;;;5066883;28;45245;-71
2022/09/15 06:53:40;;;;;;;10.40;2.28;;;23.60;57.70;;;;;;5063001;28;45404;-74
2022/09/15 06:56:07;;;;;;;5.32;1.70;;;23.70;59.20;;;;;;5055619;28;46451;-69
2022/09/15 06:58:35;;;;;;;6.32;2.05;;;23.70;60.60;;;;;;5049983;28;45204;-74
2022/09/15 07:01:02;;;;;;;5.25;1.80;;;23.70;60.20;;;;;;5031808;28;45523;-72
2022/09/15 07:03:29;;;;;;;2.80;1.63;;;23.70;61.30;;;;;;5026134;28;45487;-71
2022/09/15 07:05:56;;;;;;;17.15;14.07;;;23.80;60.30;;;;;;5032148;28;47749;-74
2022/09/15 07:08:22;;;;;;;15.45;12.15;;;23.90;60.80;;;;;;5066066;28;45365;-73
2022/09/15 07:10:51;;;;;;;23.48;19.95;;;24.00;60.00;;;;;;5066181;28;45162;-73
2022/09/15 07:13:18;;;;;;;30.27;27.17;;;24.10;59.70;;;;;;5066640;28;45463;-70
2022/09/15 07:15:50;;;;;;;38.33;34.33;;;24.10;61.20;;;;;;5066281;28;45295;-71
2022/09/15 07:18:17;;;;;;;43.45;34.00;;;24.30;61.60;;;;;;5063891;28;45397;-71
2022/09/15 07:20:44;;;;;;;41.92;37.72;;;24.40;60.10;;;;;;5049820;28;45411;-70
2022/09/15 07:23:10;;;;;;;46.78;42.03;;;24.50;60.70;;;;;;5066311;28;45283;-73
2022/09/15 07:25:37;;;;;;;27.45;24.85;;;24.60;59.50;;;;;;5066136;28;45211;-72
2022/09/15 07:28:05;;;;;;;23.23;19.00;;;24.70;59.20;;;;;;5066097;28;45299;-69
2022/09/15 07:30:32;;;;;;;19.77;14.90;;;24.70;59.00;;;;;;5066309;28;45333;-71
2022/09/15 07:32:59;;;;;;;15.48;13.25;;;24.80;59.10;;;;;;5066681;28;45401;-70
2022/09/15 07:35:26;;;;;;;19.27;11.15;;;24.80;58.80;;;;;;5066126;28;45245;-72
2022/09/15 07:37:53;;;;;;;14.15;9.35;;;24.90;59.10;;;;;;5066064;28;45189;-70
2022/09/15 07:40:20;;;;;;;8.07;6.97;;;25.00;59.20;;;;;;5065789;28;45292;-69
2022/09/15 07:42:47;;;;;;;7.03;5.90;;;25.00;59.20;;;;;;5066332;28;45430;-70
2022/09/15 07:45:16;;;;;;;6.82;5.00;;;25.10;58.30;;;;;;5062181;28;45451;-69
2022/09/15 07:47:43;;;;;;;5.20;4.70;;;25.10;57.50;;;;;;5045795;28;45282;-69
2022/09/15 07:50:10;;;;;;;10.07;9.10;;;25.20;57.00;;;;;;5050866;28;45270;-71
2022/09/15 07:52:37;;;;;;;18.95;16.77;;;25.20;56.90;;;;;;5065983;28;45312;-68
2022/09/15 07:55:04;;;;;;;28.00;25.23;;;25.20;56.80;;;;;;5064883;28;46423;-70
2022/09/15 07:57:31;;;;;;;44.92;40.33;;;25.20;56.60;;;;;;5065356;28;45340;-69
2022/09/15 07:59:57;;;;;;;49.38;44.30;;;25.30;56.50;;;;;;5065437;28;45734;-70
2022/09/15 08:02:26;;;;;;;43.45;39.17;;;25.30;56.50;;;;;;5065874;28;45308;-70
2022/09/15 08:04:53;;;;;;;60.42;54.13;;;25.30;57.20;;;;;;5065636;28;45482;-74
2022/09/15 08:07:19;;;;;;;64.85;58.17;;;25.40;57.00;;;;;;5065625;28;45293;-71
2022/09/15 08:09:47;;;;;;;63.47;56.72;;;25.50;57.20;;;;;;5065582;28;45208;-75
2022/09/15 08:12:13;;;;;;;46.10;41.30;;;25.60;59.30;;;;;;5065870;28;45249;-72
2022/09/15 08:14:40;;;;;;;49.85;44.85;;;25.70;57.80;;;;;;5069016;28;46398;-70
2022/09/15 08:17:07;;;;;;;58.15;52.05;;;25.70;57.30;;;;;;5069030;28;45384;-71
2022/09/15 08:19:35;;;;;;;71.72;64.25;;;25.80;58.40;;;;;;5048042;28;45451;-71
2022/09/15 08:22:02;;;;;;;70.80;63.55;;;25.90;57.10;;;;;;5060225;28;45337;-70
2022/09/15 08:24:29;;;;;;;68.85;61.38;;;25.90;56.70;;;;;;5068986;28;45502;-73
2022/09/15 08:26:56;;;;;;;73.20;65.68;;;26.00;57.40;;;;;;5069057;28;45149;-73
2022/09/15 08:29:23;;;;;;;65.93;58.92;;;26.00;57.20;;;;;;5069307;28;45383;-71
2022/09/15 08:31:49;;;;;;;109.82;98.60;;;26.10;56.90;;;;;;5069056;28;45242;-72
2022/09/15 08:34:16;;;;;;;60.80;53.47;;;26.10;57.80;;;;;;5068598;28;46649;-70
2022/09/15 08:36:44;;;;;;;59.83;53.80;;;26.20;57.50;;;;;;5068532;28;45302;-72
2022/09/15 08:39:11;;;;;;;85.90;77.25;;;26.20;57.30;;;;;;5068437;28;45194;-73
2022/09/15 08:41:39;;;;;;;89.10;79.50;;;26.20;56.50;;;;;;5068416;28;45372;-71
2022/09/15 08:44:10;;;;;;;67.60;60.50;;;26.30;57.00;;;;;;5068628;28;47627;-73
2022/09/15 08:46:39;;;;;;;74.28;66.32;;;26.30;56.00;;;;;;5068114;28;45292;-71
2022/09/15 08:49:09;;;;;;;74.25;66.50;;;26.40;56.00;;;;;;5068598;28;45223;-73
2022/09/15 08:51:40;;;;;;;73.13;65.68;;;26.40;56.30;;;;;;5069055;28;45162;-73
2022/09/15 08:54:12;;;;;;;66.68;59.50;;;26.50;56.40;;;;;;5068400;28;45417;-71
2022/09/15 08:56:39;;;;;;;62.50;55.92;;;26.50;56.70;;;;;;5053739;28;45667;-72
2022/09/15 08:59:09;;;;;;;85.38;76.45;;;26.50;55.80;;;;;;5044273;28;45452;-69
2022/09/15 09:01:41;;;;;;;68.25;60.95;;;26.60;55.10;;;;;;5048300;28;45180;-71
2022/09/15 09:04:47;;;;;;;92.47;82.97;;;26.60;55.10;;;;;;5048149;28;45459;-72
2022/09/15 09:07:20;;;;;;;69.60;62.22;;;26.70;54.60;;;;;;5027659;28;45198;-70
2022/09/15 09:09:51;;;;;;;69.18;62.10;;;26.60;54.80;;;;;;5027808;28;45328;-69
2022/09/15 09:12:28;;;;;;;72.43;65.03;;;26.70;55.30;;;;;;5028100;28;45638;-72
2022/09/15 09:15:03;;;;;;;80.07;72.07;;;26.70;54.70;;;;;;5032635;28;45476;-73
2022/09/15 09:17:41;;;;;;;79.03;70.85;;;26.70;54.40;;;;;;5028039;28;45356;-72
2022/09/15 09:20:28;;;;;;;114.72;102.82;;;26.70;54.70;;;;;;5027873;28;45261;-69
2022/09/15 09:22:55;;;;;;;98.63;88.10;;;26.80;55.20;;;;;;5028105;28;45179;-73
2022/09/15 09:25:23;;;;;;;117.90;106.53;;;26.90;56.90;;;;;;5027415;28;47588;-72
2022/09/15 09:27:50;;;;;;;113.65;102.15;;;26.90;54.80;;;;;;5027230;28;45341;-73
2022/09/15 09:30:18;;;;;;;107.80;96.07;;;26.90;54.30;;;;;;5027441;28;45479;-72
2022/09/15 09:32:46;;;;;;;89.70;80.35;;;26.90;54.50;;;;;;5027722;28;45365;-73
2022/09/15 09:35:17;;;;;;;57.17;51.20;;;26.90;53.90;;;;;;5031506;28;46398;-71
2022/09/15 09:37:44;;;;;;;85.65;76.80;;;26.90;53.50;;;;;;5047802;28;45190;-72
2022/09/15 09:40:13;;;;;;;74.22;66.63;;;26.90;53.30;;;;;;5047786;28;45241;-71
2022/09/15 09:42:41;;;;;;;72.65;65.03;;;26.90;53.60;;;;;;5047659;28;45254;-73
2022/09/15 09:45:12;;;;;;;58.88;52.45;;;26.90;54.20;;;;;;5047448;28;46653;-72
2022/09/15 09:47:38;;;;;;;47.42;42.47;;;26.90;54.00;;;;;;5064043;28;44999;-75
2022/09/15 09:50:09;;;;;;;37.92;31.80;;;26.90;54.70;;;;;;5047696;28;45288;-74
2022/09/15 09:52:37;;;;;;;29.50;25.92;;;26.90;54.70;;;;;;5047051;28;45203;-74
2022/09/15 09:55:15;;;;;;;29.60;22.55;;;26.90;55.80;;;;;;5048266;28;45469;-72
2022/09/15 09:57:44;;;;;;;81.75;68.82;;;26.90;55.10;;;;;;5067451;28;45367;-70
2022/09/15 10:00:30;;;;;;;49.10;41.90;;;26.90;55.00;;;;;;5066409;28;45226;-71
2022/09/15 10:02:57;;;;;;;61.17;54.65;;;26.90;54.90;;;;;;5047266;28;45190;-70
2022/09/15 10:05:23;;;;;;;64.78;58.15;;;26.90;54.20;;;;;;5050822;28;45392;-72
2022/09/15 10:07:50;;;;;;;49.60;44.40;;;26.90;53.90;;;;;;5056391;28;45310;-72
2022/09/15 10:10:21;;;;;;;45.42;40.78;;;27.00;54.60;;;;;;5065848;28;45470;-77
2022/09/15 10:12:49;;;;;;;35.85;32.45;;;27.00;54.60;;;;;;5047145;28;45440;-73
2022/09/15 10:15:21;;;;;;;23.55;21.27;;;27.00;55.20;;;;;;5044515;28;45390;-71
2022/09/15 10:17:48;;;;;;;11.77;9.63;;;27.10;54.40;;;;;;5046478;28;45203;-69
2022/09/15 10:20:24;;;;;;;10.05;8.20;;;27.00;53.00;;;;;;5046324;28;45290;-69
2022/09/15 10:22:51;;;;;;;6.88;5.72;;;26.90;53.10;;;;;;5046419;28;45401;-74
2022/09/15 10:25:29;;;;;;;6.30;4.63;;;26.80;53.20;;;;;;5046822;28;45527;-72
2022/09/15 10:28:08;;;;;;;7.40;4.40;;;26.70;53.30;;;;;;5046478;28;45216;-73
2022/09/15 10:30:35;;;;;;;3.75;3.47;;;26.60;53.00;;;;;;5045909;28;45386;-73
2022/09/15 10:33:17;;;;;;;3.92;3.63;;;26.40;53.20;;;;;;5046843;28;45310;-73
2022/09/15 10:35:44;;;;;;;5.07;4.28;;;26.30;53.30;;;;;;5054744;28;45458;-73
2022/09/15 10:38:12;;;;;;;4.78;4.00;;;26.20;53.50;;;;;;5064256;28;45320;-73
2022/09/15 10:40:43;;;;;;;5.13;3.90;;;26.10;53.70;;;;;;5067100;28;45189;-73
2022/09/15 10:43:20;;;;;;;6.25;4.10;;;26.00;54.50;;;;;;5067121;28;45272;-73
2022/09/15 10:45:48;;;;;;;5.93;4.07;;;25.90;54.00;;;;;;5066362;28;45312;-73
2022/09/15 10:48:43;;;;;;;5.20;3.60;;;25.80;54.20;;;;;;5066661;28;45281;-73
2022/09/15 10:51:16;;;;;;;3.85;3.38;;;25.80;54.30;;;;;;5056176;28;45249;-73
2022/09/15 10:53:54;;;;;;;3.60;3.30;;;25.70;54.50;;;;;;5066833;28;45433;-73
2022/09/15 10:56:27;;;;;;;6.00;3.40;;;25.60;54.50;;;;;;5054025;28;45438;-73
2022/09/15 10:59:15;;;;;;;3.60;3.30;;;25.60;54.70;;;;;;5046242;28;45414;-73
2022/09/15 11:01:53;;;;;;;3.78;2.95;;;25.60;54.80;;;;;;5045509;28;45279;-73
2022/09/15 11:04:41;;;;;;;4.10;3.00;;;25.50;54.90;;;;;;5045860;28;45384;-73
2022/09/15 11:07:11;;;;;;;3.45;3.15;;;25.50;55.00;;;;;;5046088;28;45467;-72
2022/09/15 11:09:40;;;;;;;3.83;2.67;;;25.50;55.20;;;;;;5045775;28;45276;-72
2022/09/15 11:12:16;;;;;;;3.58;2.30;;;25.50;55.20;;;;;;5044589;28;45471;-71
2022/09/15 11:14:52;;;;;;;3.58;2.40;;;25.40;55.20;;;;;;5045469;28;45391;-73
2022/09/15 11:17:36;;;;;;;2.67;1.95;;;25.40;55.60;;;;;;5044608;28;45495;-73
2022/09/15 11:20:16;;;;;;;2.88;2.00;;;25.40;55.70;;;;;;5044044;28;45470;-73
2022/09/15 11:22:46;;;;;;;2.25;2.00;;;25.40;56.00;;;;;;5046026;28;45238;-73
2022/09/15 11:25:13;;;;;;;2.50;1.73;;;25.40;56.00;;;;;;5045942;28;45448;-73
2022/09/15 11:27:41;;;;;;;3.30;1.90;;;25.30;56.00;;;;;;5044710;28;45212;-73
2022/09/15 11:30:15;;;;;;;1.80;1.65;;;25.30;56.20;;;;;;5045488;28;45215;-74
2022/09/15 11:32:44;;;;;;;1.73;1.35;;;25.30;56.30;;;;;;5045436;28;45267;-73
2022/09/15 11:35:33;;;;;;;1.52;1.33;;;25.30;56.30;;;;;;5051066;28;45469;-73
2022/09/15 11:38:03;;;;;;;2.88;1.30;;;25.30;56.50;;;;;;5065163;28;46641;-73
2022/09/15 11:40:33;;;;;;;1.90;1.15;;;25.30;56.70;;;;;;5052091;28;45374;-73
2022/09/15 11:43:00;;;;;;;2.50;1.50;;;25.20;56.70;;;;;;5045823;28;45325;-73
2022/09/15 11:45:32;;;;;;;1.65;1.30;;;25.20;56.80;;;;;;5046140;28;45381;-73
2022/09/15 11:47:59;;;;;;;1.02;1.02;;;25.20;56.80;;;;;;5048283;28;46370;-73
2022/09/15 11:50:28;;;;;;;1.30;1.20;;;25.20;56.80;;;;;;5049419;28;45223;-73
2022/09/15 11:52:58;;;;;;;0.95;0.95;;;25.20;56.90;;;;;;5049168;28;45342;-73
2022/09/15 11:55:28;;;;;;;1.20;1.02;;;25.20;57.00;;;;;;5050716;28;45387;-73
2022/09/15 11:58:03;;;;;;;1.50;1.10;;;25.20;57.20;;;;;;5046431;28;45603;-73
2022/09/15 12:00:31;;;;;;;1.35;0.90;;;25.10;57.20;;;;;;5044426;28;45400;-74
2022/09/15 12:03:04;;;;;;;1.75;1.00;;;25.10;57.30;;;;;;5043923;28;45404;-74
2022/09/15 12:05:36;;;;;;;1.00;0.90;;;25.10;57.50;;;;;;5044147;28;45468;-74
2022/09/15 12:08:05;;;;;;;1.63;1.00;;;25.10;57.70;;;;;;5045348;28;46767;-73
2022/09/15 12:10:35;;;;;;;2.95;1.02;;;25.00;57.60;;;;;;5045556;28;45487;-72
2022/09/15 12:13:03;;;;;;;1.08;0.90;;;25.00;57.40;;;;;;5047454;28;45294;-73
2022/09/15 12:15:31;;;;;;;0.88;0.88;;;25.00;57.10;;;;;;5045846;28;45378;-73
2022/09/15 12:18:05;;;;;;;1.80;1.00;;;25.00;57.20;;;;;;5047406;28;45271;-73
2022/09/15 12:20:34;;;;;;;1.88;1.02;;;25.00;57.20;;;;;;5045628;28;45414;-72
2022/09/15 12:23:04;;;;;;;1.77;1.23;;;25.00;57.40;;;;;;5044208;28;45377;-73
2022/09/15 12:25:33;;;;;;;1.60;0.90;;;25.00;57.40;;;;;;5045668;28;45480;-73
2022/09/15 12:28:34;;;;;;;2.75;1.13;;;25.00;57.40;;;;;;5041419;28;46391;-73
2022/09/15 12:31:25;;;;;;;3.65;0.90;;;24.90;57.40;;;;;;5032130;28;45175;-74
2022/09/15 12:33:57;;;;;;;1.10;0.95;;;24.90;57.30;;;;;;5052856;28;45393;-73
2022/09/15 12:36:44;;;;;;;0.95;0.90;;;24.90;57.50;;;;;;5052617;28;45503;-74
2022/09/15 12:39:28;;;;;;;1.65;1.10;;;24.80;57.50;;;;;;5049787;28;46385;-73
2022/09/15 12:41:57;;;;;;;1.55;1.00;;;24.80;57.50;;;;;;5054030;28;45420;-73
2022/09/15 12:44:27;;;;;;;1.27;1.10;;;24.80;57.60;;;;;;5052282;28;45310;-73
2022/09/15 12:46:56;;;;;;;1.58;1.20;;;24.70;57.60;;;;;;5053044;28;45644;-74
2022/09/15 12:49:27;;;;;;;2.53;1.20;;;24.70;57.70;;;;;;5052877;28;46679;-73
2022/09/15 12:51:54;;;;;;;1.40;0.95;;;24.70;57.80;;;;;;5054411;28;45459;-73